sensor_id;sensor_type;location;lat;lon;timestamp;P1;durP1;ratioP1;P2;durP2;ratioP2
72422;SDS011;60413;55.658;37.498;2023-03-05T00:01:59;3.25;;;1.42;;
72422;SDS011;60413;55.658;37.498;2023-03-05T00:04:25;1.77;;;1.00;;
72422;SDS011;60413;55.658;37.498;2023-03-05T00:06:51;1.35;;;0.77;;
72422;SDS011;60413;55.658;37.498;2023-03-05T00:09:17;2.35;;;1.00;;
72422;SDS011;60413;55.658;37.498;2023-03-05T00:11:43;1.92;;;0.90;;
72422;SDS011;60413;55.658;37.498;2023-03-05T00:14:09;1.67;;;0.90;;
72422;SDS011;60413;55.658;37.498;2023-03-05T00:16:36;3.13;;;1.10;;
72422;SDS011;60413;55.658;37.498;2023-03-05T00:19:02;4.72;;;1.48;;
72422;SDS011;60413;55.658;37.498;2023-03-05T00:21:35;1.35;;;0.82;;
72422;SDS011;60413;55.658;37.498;2023-03-05T00:24:03;4.68;;;1.80;;
72422;SDS011;60413;55.658;37.498;2023-03-05T00:26:41;3.78;;;1.23;;
72422;SDS011;60413;55.658;37.498;2023-03-05T00:29:08;5.05;;;1.67;;
72422;SDS011;60413;55.658;37.498;2023-03-05T00:31:36;4.25;;;1.48;;
72422;SDS011;60413;55.658;37.498;2023-03-05T00:34:06;4.40;;;1.45;;
72422;SDS011;60413;55.658;37.498;2023-03-05T00:36:40;4.88;;;1.27;;
72422;SDS011;60413;55.658;37.498;2023-03-05T00:39:08;2.45;;;1.17;;
72422;SDS011;60413;55.658;37.498;2023-03-05T00:41:36;2.25;;;1.10;;
72422;SDS011;60413;55.658;37.498;2023-03-05T00:44:06;2.45;;;1.08;;
72422;SDS011;60413;55.658;37.498;2023-03-05T00:46:36;6.47;;;1.48;;
72422;SDS011;60413;55.658;37.498;2023-03-05T00:49:03;5.10;;;1.40;;
72422;SDS011;60413;55.658;37.498;2023-03-05T00:51:29;3.50;;;1.10;;
72422;SDS011;60413;55.658;37.498;2023-03-05T00:54:00;5.15;;;1.20;;
72422;SDS011;60413;55.658;37.498;2023-03-05T00:56:31;1.73;;;0.93;;
72422;SDS011;60413;55.658;37.498;2023-03-05T00:59:00;4.28;;;1.35;;
72422;SDS011;60413;55.658;37.498;2023-03-05T01:01:26;3.70;;;1.10;;
72422;SDS011;60413;55.658;37.498;2023-03-05T01:03:53;3.65;;;1.40;;
72422;SDS011;60413;55.658;37.498;2023-03-05T01:06:21;3.85;;;1.15;;
72422;SDS011;60413;55.658;37.498;2023-03-05T01:08:47;6.05;;;1.10;;
72422;SDS011;60413;55.658;37.498;2023-03-05T01:11:13;6.97;;;1.80;;
72422;SDS011;60413;55.658;37.498;2023-03-05T01:13:39;2.10;;;0.98;;
72422;SDS011;60413;55.658;37.498;2023-03-05T01:16:06;1.73;;;1.10;;
72422;SDS011;60413;55.658;37.498;2023-03-05T01:18:33;3.60;;;1.20;;
72422;SDS011;60413;55.658;37.498;2023-03-05T01:20:59;2.03;;;0.95;;
72422;SDS011;60413;55.658;37.498;2023-03-05T01:23:25;3.28;;;0.90;;
72422;SDS011;60413;55.658;37.498;2023-03-05T01:25:57;1.58;;;0.88;;
72422;SDS011;60413;55.658;37.498;2023-03-05T01:28:25;1.67;;;0.80;;
72422;SDS011;60413;55.658;37.498;2023-03-05T01:30:52;2.08;;;0.90;;
72422;SDS011;60413;55.658;37.498;2023-03-05T01:33:18;2.72;;;1.00;;
72422;SDS011;60413;55.658;37.498;2023-03-05T01:35:47;2.00;;;0.90;;
72422;SDS011;60413;55.658;37.498;2023-03-05T01:38:14;2.40;;;1.00;;
72422;SDS011;60413;55.658;37.498;2023-03-05T01:40:41;2.38;;;1.00;;
72422;SDS011;60413;55.658;37.498;2023-03-05T01:43:18;1.65;;;0.82;;
72422;SDS011;60413;55.658;37.498;2023-03-05T01:54:37;7.40;;;3.28;;
72422;SDS011;60413;55.658;37.498;2023-03-05T01:57:29;2.83;;;1.10;;
72422;SDS011;60413;55.658;37.498;2023-03-05T02:00:07;2.03;;;1.20;;
72422;SDS011;60413;55.658;37.498;2023-03-05T02:02:38;4.13;;;1.38;;
72422;SDS011;60413;55.658;37.498;2023-03-05T02:05:28;3.22;;;1.08;;
72422;SDS011;60413;55.658;37.498;2023-03-05T02:07:57;2.58;;;1.10;;
72422;SDS011;60413;55.658;37.498;2023-03-05T02:10:26;2.67;;;1.30;;
72422;SDS011;60413;55.658;37.498;2023-03-05T02:12:55;6.22;;;1.45;;
72422;SDS011;60413;55.658;37.498;2023-03-05T02:15:25;2.60;;;1.30;;
72422;SDS011;60413;55.658;37.498;2023-03-05T02:17:51;3.83;;;1.40;;
72422;SDS011;60413;55.658;37.498;2023-03-05T02:20:18;3.33;;;1.65;;
72422;SDS011;60413;55.658;37.498;2023-03-05T02:22:48;3.83;;;1.50;;
72422;SDS011;60413;55.658;37.498;2023-03-05T02:25:25;4.75;;;1.35;;
72422;SDS011;60413;55.658;37.498;2023-03-05T02:30:37;4.43;;;1.20;;
72422;SDS011;60413;55.658;37.498;2023-03-05T02:33:04;3.70;;;1.08;;
72422;SDS011;60413;55.658;37.498;2023-03-05T02:35:31;3.28;;;1.35;;
72422;SDS011;60413;55.658;37.498;2023-03-05T02:37:57;8.35;;;1.95;;
72422;SDS011;60413;55.658;37.498;2023-03-05T02:40:22;6.50;;;1.33;;
72422;SDS011;60413;55.658;37.498;2023-03-05T02:42:49;2.80;;;0.80;;
72422;SDS011;60413;55.658;37.498;2023-03-05T02:45:15;3.78;;;1.20;;
72422;SDS011;60413;55.658;37.498;2023-03-05T02:47:41;5.35;;;1.52;;
72422;SDS011;60413;55.658;37.498;2023-03-05T02:50:07;2.42;;;1.20;;
72422;SDS011;60413;55.658;37.498;2023-03-05T02:52:36;2.15;;;1.10;;
72422;SDS011;60413;55.658;37.498;2023-03-05T02:55:04;2.67;;;1.15;;
72422;SDS011;60413;55.658;37.498;2023-03-05T02:57:30;4.90;;;1.20;;
72422;SDS011;60413;55.658;37.498;2023-03-05T02:59:56;3.53;;;1.23;;
72422;SDS011;60413;55.658;37.498;2023-03-05T03:02:22;3.67;;;1.35;;
72422;SDS011;60413;55.658;37.498;2023-03-05T03:04:48;4.40;;;1.20;;
72422;SDS011;60413;55.658;37.498;2023-03-05T03:07:14;6.50;;;1.20;;
72422;SDS011;60413;55.658;37.498;2023-03-05T03:09:40;7.90;;;1.48;;
72422;SDS011;60413;55.658;37.498;2023-03-05T03:12:07;3.35;;;1.30;;
72422;SDS011;60413;55.658;37.498;2023-03-05T03:14:35;4.00;;;1.08;;
72422;SDS011;60413;55.658;37.498;2023-03-05T03:17:04;7.25;;;1.92;;
72422;SDS011;60413;55.658;37.498;2023-03-05T03:19:31;5.10;;;1.00;;
72422;SDS011;60413;55.658;37.498;2023-03-05T03:21:56;3.33;;;1.40;;
72422;SDS011;60413;55.658;37.498;2023-03-05T03:24:22;6.75;;;1.90;;
72422;SDS011;60413;55.658;37.498;2023-03-05T03:26:48;6.28;;;1.40;;
72422;SDS011;60413;55.658;37.498;2023-03-05T03:29:15;5.65;;;1.23;;
72422;SDS011;60413;55.658;37.498;2023-03-05T03:31:42;5.65;;;1.55;;
72422;SDS011;60413;55.658;37.498;2023-03-05T03:34:13;6.55;;;1.35;;
72422;SDS011;60413;55.658;37.498;2023-03-05T03:36:40;3.65;;;1.15;;
72422;SDS011;60413;55.658;37.498;2023-03-05T03:39:07;3.05;;;1.25;;
72422;SDS011;60413;55.658;37.498;2023-03-05T03:41:36;3.67;;;1.73;;
72422;SDS011;60413;55.658;37.498;2023-03-05T03:44:05;1.90;;;1.00;;
72422;SDS011;60413;55.658;37.498;2023-03-05T03:46:33;2.53;;;1.20;;
72422;SDS011;60413;55.658;37.498;2023-03-05T03:48:59;5.53;;;1.13;;
72422;SDS011;60413;55.658;37.498;2023-03-05T03:51:25;4.75;;;1.20;;
72422;SDS011;60413;55.658;37.498;2023-03-05T03:53:51;2.75;;;1.25;;
72422;SDS011;60413;55.658;37.498;2023-03-05T03:56:17;5.47;;;1.35;;
72422;SDS011;60413;55.658;37.498;2023-03-05T03:58:43;4.18;;;1.13;;
72422;SDS011;60413;55.658;37.498;2023-03-05T04:01:09;5.47;;;1.00;;
72422;SDS011;60413;55.658;37.498;2023-03-05T04:03:35;2.80;;;1.48;;
72422;SDS011;60413;55.658;37.498;2023-03-05T04:06:00;4.53;;;1.20;;
72422;SDS011;60413;55.658;37.498;2023-03-05T04:08:26;2.85;;;1.27;;
72422;SDS011;60413;55.658;37.498;2023-03-05T04:10:52;3.90;;;1.40;;
72422;SDS011;60413;55.658;37.498;2023-03-05T04:13:18;2.70;;;1.27;;
72422;SDS011;60413;55.658;37.498;2023-03-05T04:15:44;4.03;;;1.60;;
72422;SDS011;60413;55.658;37.498;2023-03-05T04:18:09;2.08;;;1.00;;
72422;SDS011;60413;55.658;37.498;2023-03-05T04:20:35;2.00;;;1.10;;
72422;SDS011;60413;55.658;37.498;2023-03-05T04:23:01;3.75;;;1.23;;
72422;SDS011;60413;55.658;37.498;2023-03-05T04:25:27;2.50;;;1.10;;
72422;SDS011;60413;55.658;37.498;2023-03-05T04:27:54;4.32;;;0.90;;
72422;SDS011;60413;55.658;37.498;2023-03-05T04:30:19;2.53;;;0.95;;
72422;SDS011;60413;55.658;37.498;2023-03-05T04:32:45;2.80;;;1.10;;
72422;SDS011;60413;55.658;37.498;2023-03-05T04:35:11;4.25;;;1.17;;
72422;SDS011;60413;55.658;37.498;2023-03-05T04:37:37;4.47;;;1.17;;
72422;SDS011;60413;55.658;37.498;2023-03-05T04:40:03;1.45;;;0.70;;
72422;SDS011;60413;55.658;37.498;2023-03-05T04:42:29;2.65;;;1.20;;
72422;SDS011;60413;55.658;37.498;2023-03-05T04:44:55;3.55;;;0.95;;
72422;SDS011;60413;55.658;37.498;2023-03-05T04:47:20;7.72;;;1.27;;
72422;SDS011;60413;55.658;37.498;2023-03-05T04:49:46;2.53;;;0.98;;
72422;SDS011;60413;55.658;37.498;2023-03-05T04:52:12;3.40;;;1.20;;
72422;SDS011;60413;55.658;37.498;2023-03-05T04:54:39;2.28;;;1.13;;
72422;SDS011;60413;55.658;37.498;2023-03-05T04:57:05;4.03;;;1.10;;
72422;SDS011;60413;55.658;37.498;2023-03-05T04:59:32;2.45;;;0.82;;
72422;SDS011;60413;55.658;37.498;2023-03-05T05:01:57;2.05;;;1.00;;
72422;SDS011;60413;55.658;37.498;2023-03-05T05:04:23;1.48;;;0.90;;
72422;SDS011;60413;55.658;37.498;2023-03-05T05:06:49;2.20;;;0.75;;
72422;SDS011;60413;55.658;37.498;2023-03-05T05:09:17;3.75;;;1.02;;
72422;SDS011;60413;55.658;37.498;2023-03-05T05:11:43;2.03;;;0.90;;
72422;SDS011;60413;55.658;37.498;2023-03-05T05:14:09;1.75;;;1.00;;
72422;SDS011;60413;55.658;37.498;2023-03-05T05:16:35;2.90;;;0.90;;
72422;SDS011;60413;55.658;37.498;2023-03-05T05:21:53;3.72;;;1.15;;
72422;SDS011;60413;55.658;37.498;2023-03-05T05:24:20;2.90;;;1.33;;
72422;SDS011;60413;55.658;37.498;2023-03-05T05:26:45;2.05;;;0.85;;
72422;SDS011;60413;55.658;37.498;2023-03-05T05:29:13;3.60;;;1.23;;
72422;SDS011;60413;55.658;37.498;2023-03-05T05:31:42;4.53;;;1.08;;
72422;SDS011;60413;55.658;37.498;2023-03-05T05:49:15;4.28;;;1.02;;
72422;SDS011;60413;55.658;37.498;2023-03-05T05:51:44;5.15;;;1.00;;
72422;SDS011;60413;55.658;37.498;2023-03-05T05:54:13;2.22;;;1.33;;
72422;SDS011;60413;55.658;37.498;2023-03-05T05:56:43;5.05;;;1.05;;
72422;SDS011;60413;55.658;37.498;2023-03-05T05:59:09;3.35;;;1.00;;
72422;SDS011;60413;55.658;37.498;2023-03-05T06:01:36;2.88;;;1.10;;
72422;SDS011;60413;55.658;37.498;2023-03-05T06:04:06;3.50;;;1.27;;
72422;SDS011;60413;55.658;37.498;2023-03-05T06:06:32;2.17;;;0.95;;
72422;SDS011;60413;55.658;37.498;2023-03-05T06:09:20;3.83;;;1.23;;
72422;SDS011;60413;55.658;37.498;2023-03-05T06:11:46;4.43;;;1.60;;
72422;SDS011;60413;55.658;37.498;2023-03-05T06:14:21;3.20;;;1.50;;
72422;SDS011;60413;55.658;37.498;2023-03-05T06:16:47;4.78;;;1.02;;
72422;SDS011;60413;55.658;37.498;2023-03-05T06:19:16;2.72;;;1.00;;
72422;SDS011;60413;55.658;37.498;2023-03-05T06:21:44;2.00;;;0.90;;
72422;SDS011;60413;55.658;37.498;2023-03-05T06:24:10;5.78;;;1.10;;
72422;SDS011;60413;55.658;37.498;2023-03-05T06:26:47;4.18;;;1.40;;
72422;SDS011;60413;55.658;37.498;2023-03-05T06:29:16;1.92;;;0.98;;
72422;SDS011;60413;55.658;37.498;2023-03-05T06:31:43;2.83;;;1.00;;
72422;SDS011;60413;55.658;37.498;2023-03-05T06:34:10;3.63;;;1.10;;
72422;SDS011;60413;55.658;37.498;2023-03-05T06:36:37;1.55;;;0.90;;
72422;SDS011;60413;55.658;37.498;2023-03-05T06:39:12;2.58;;;0.85;;
72422;SDS011;60413;55.658;37.498;2023-03-05T06:45:31;2.15;;;1.02;;
72422;SDS011;60413;55.658;37.498;2023-03-05T06:48:03;1.98;;;0.90;;
72422;SDS011;60413;55.658;37.498;2023-03-05T06:50:45;3.08;;;1.10;;
72422;SDS011;60413;55.658;37.498;2023-03-05T06:53:22;2.40;;;0.90;;
72422;SDS011;60413;55.658;37.498;2023-03-05T06:59:32;4.70;;;1.05;;
72422;SDS011;60413;55.658;37.498;2023-03-05T07:02:09;4.50;;;1.48;;
72422;SDS011;60413;55.658;37.498;2023-03-05T07:04:44;6.15;;;1.30;;
72422;SDS011;60413;55.658;37.498;2023-03-05T07:07:19;4.05;;;1.60;;
72422;SDS011;60413;55.658;37.498;2023-03-05T07:09:50;4.90;;;1.92;;
72422;SDS011;60413;55.658;37.498;2023-03-05T07:12:39;3.65;;;1.50;;
72422;SDS011;60413;55.658;37.498;2023-03-05T07:15:16;5.35;;;1.70;;
72422;SDS011;60413;55.658;37.498;2023-03-05T07:17:51;3.50;;;1.55;;
72422;SDS011;60413;55.658;37.498;2023-03-05T07:20:41;8.75;;;1.58;;
72422;SDS011;60413;55.658;37.498;2023-03-05T07:24:21;2.58;;;1.45;;
72422;SDS011;60413;55.658;37.498;2023-03-05T07:27:03;4.15;;;1.83;;
72422;SDS011;60413;55.658;37.498;2023-03-05T07:30:04;3.33;;;1.50;;
72422;SDS011;60413;55.658;37.498;2023-03-05T07:32:35;3.60;;;1.60;;
72422;SDS011;60413;55.658;37.498;2023-03-05T07:35:05;8.30;;;2.35;;
72422;SDS011;60413;55.658;37.498;2023-03-05T07:37:32;4.43;;;1.90;;
72422;SDS011;60413;55.658;37.498;2023-03-05T07:39:59;3.55;;;1.77;;
72422;SDS011;60413;55.658;37.498;2023-03-05T07:42:30;4.68;;;2.25;;
72422;SDS011;60413;55.658;37.498;2023-03-05T07:56:49;3.90;;;1.95;;
72422;SDS011;60413;55.658;37.498;2023-03-05T08:10:23;9.52;;;3.53;;
72422;SDS011;60413;55.658;37.498;2023-03-05T08:12:50;6.95;;;2.65;;
72422;SDS011;60413;55.658;37.498;2023-03-05T08:15:18;4.13;;;1.88;;
72422;SDS011;60413;55.658;37.498;2023-03-05T08:17:51;5.32;;;2.42;;
72422;SDS011;60413;55.658;37.498;2023-03-05T08:23:45;10.93;;;3.15;;
72422;SDS011;60413;55.658;37.498;2023-03-05T08:33:53;5.88;;;3.08;;
72422;SDS011;60413;55.658;37.498;2023-03-05T08:36:26;6.15;;;2.75;;
72422;SDS011;60413;55.658;37.498;2023-03-05T08:38:55;8.38;;;3.45;;
72422;SDS011;60413;55.658;37.498;2023-03-05T08:41:37;3.90;;;2.42;;
72422;SDS011;60413;55.658;37.498;2023-03-05T08:44:09;8.32;;;3.50;;
72422;SDS011;60413;55.658;37.498;2023-03-05T08:46:37;6.35;;;3.45;;
72422;SDS011;60413;55.658;37.498;2023-03-05T08:49:08;7.70;;;3.58;;
72422;SDS011;60413;55.658;37.498;2023-03-05T08:51:35;8.13;;;3.53;;
72422;SDS011;60413;55.658;37.498;2023-03-05T08:54:09;7.05;;;3.60;;
72422;SDS011;60413;55.658;37.498;2023-03-05T08:56:36;6.90;;;3.22;;
72422;SDS011;60413;55.658;37.498;2023-03-05T08:59:03;7.07;;;3.45;;
72422;SDS011;60413;55.658;37.498;2023-03-05T09:01:29;5.80;;;3.03;;
72422;SDS011;60413;55.658;37.498;2023-03-05T09:04:01;9.20;;;3.45;;
72422;SDS011;60413;55.658;37.498;2023-03-05T09:06:28;9.05;;;4.28;;
72422;SDS011;60413;55.658;37.498;2023-03-05T09:08:54;8.52;;;4.05;;
72422;SDS011;60413;55.658;37.498;2023-03-05T09:14:18;10.25;;;4.43;;
72422;SDS011;60413;55.658;37.498;2023-03-05T09:16:44;11.40;;;3.85;;
72422;SDS011;60413;55.658;37.498;2023-03-05T09:19:12;8.75;;;3.95;;
72422;SDS011;60413;55.658;37.498;2023-03-05T09:21:39;5.30;;;2.42;;
72422;SDS011;60413;55.658;37.498;2023-03-05T09:24:07;4.10;;;2.20;;
72422;SDS011;60413;55.658;37.498;2023-03-05T09:26:39;7.90;;;4.05;;
72422;SDS011;60413;55.658;37.498;2023-03-05T09:29:07;7.28;;;3.17;;
72422;SDS011;60413;55.658;37.498;2023-03-05T09:31:35;8.52;;;3.88;;
72422;SDS011;60413;55.658;37.498;2023-03-05T09:34:25;12.18;;;4.38;;
72422;SDS011;60413;55.658;37.498;2023-03-05T09:36:54;12.40;;;4.43;;
72422;SDS011;60413;55.658;37.498;2023-03-05T09:39:21;10.48;;;4.80;;
72422;SDS011;60413;55.658;37.498;2023-03-05T09:42:02;10.82;;;3.95;;
72422;SDS011;60413;55.658;37.498;2023-03-05T09:44:40;8.27;;;4.63;;
72422;SDS011;60413;55.658;37.498;2023-03-05T09:47:44;6.22;;;3.22;;
72422;SDS011;60413;55.658;37.498;2023-03-05T09:50:31;8.95;;;3.60;;
72422;SDS011;60413;55.658;37.498;2023-03-05T09:56:18;13.40;;;4.25;;
72422;SDS011;60413;55.658;37.498;2023-03-05T09:58:51;10.43;;;3.92;;
72422;SDS011;60413;55.658;37.498;2023-03-05T10:01:20;13.52;;;4.97;;
72422;SDS011;60413;55.658;37.498;2023-03-05T10:04:26;5.45;;;3.15;;
72422;SDS011;60413;55.658;37.498;2023-03-05T10:07:14;9.68;;;4.35;;
72422;SDS011;60413;55.658;37.498;2023-03-05T10:10:14;10.43;;;4.80;;
72422;SDS011;60413;55.658;37.498;2023-03-05T10:13:25;9.13;;;4.40;;
72422;SDS011;60413;55.658;37.498;2023-03-05T10:25:17;8.40;;;4.63;;
72422;SDS011;60413;55.658;37.498;2023-03-05T10:42:57;8.85;;;4.70;;
72422;SDS011;60413;55.658;37.498;2023-03-05T10:49:35;12.10;;;5.05;;
72422;SDS011;60413;55.658;37.498;2023-03-05T10:52:35;8.93;;;4.75;;
72422;SDS011;60413;55.658;37.498;2023-03-05T10:56:20;8.95;;;4.20;;
72422;SDS011;60413;55.658;37.498;2023-03-05T10:59:35;8.45;;;3.92;;
72422;SDS011;60413;55.658;37.498;2023-03-05T11:02:15;10.65;;;5.28;;
72422;SDS011;60413;55.658;37.498;2023-03-05T11:08:39;6.57;;;3.47;;
72422;SDS011;60413;55.658;37.498;2023-03-05T11:12:15;12.43;;;4.95;;
72422;SDS011;60413;55.658;37.498;2023-03-05T11:18:37;14.45;;;5.60;;
72422;SDS011;60413;55.658;37.498;2023-03-05T11:21:18;10.60;;;4.78;;
72422;SDS011;60413;55.658;37.498;2023-03-05T11:24:02;10.63;;;5.60;;
72422;SDS011;60413;55.658;37.498;2023-03-05T11:26:31;12.55;;;5.55;;
72422;SDS011;60413;55.658;37.498;2023-03-05T11:29:18;11.93;;;5.63;;
72422;SDS011;60413;55.658;37.498;2023-03-05T11:31:48;9.65;;;4.28;;
72422;SDS011;60413;55.658;37.498;2023-03-05T11:37:04;11.15;;;5.75;;
72422;SDS011;60413;55.658;37.498;2023-03-05T11:39:37;12.30;;;6.22;;
72422;SDS011;60413;55.658;37.498;2023-03-05T11:45:00;11.70;;;5.93;;
72422;SDS011;60413;55.658;37.498;2023-03-05T11:47:33;10.73;;;5.05;;
72422;SDS011;60413;55.658;37.498;2023-03-05T11:52:51;6.28;;;3.33;;
72422;SDS011;60413;55.658;37.498;2023-03-05T11:55:51;10.57;;;5.55;;
72422;SDS011;60413;55.658;37.498;2023-03-05T11:58:38;12.82;;;6.57;;
72422;SDS011;60413;55.658;37.498;2023-03-05T12:01:27;9.57;;;5.13;;
72422;SDS011;60413;55.658;37.498;2023-03-05T12:04:19;8.88;;;4.10;;
72422;SDS011;60413;55.658;37.498;2023-03-05T12:29:58;8.95;;;4.05;;
72422;SDS011;60413;55.658;37.498;2023-03-05T12:38:16;8.20;;;4.35;;
72422;SDS011;60413;55.658;37.498;2023-03-05T12:51:28;10.77;;;5.00;;
72422;SDS011;60413;55.658;37.498;2023-03-05T13:28:03;8.25;;;3.83;;
72422;SDS011;60413;55.658;37.498;2023-03-05T13:30:34;7.38;;;3.97;;
72422;SDS011;60413;55.658;37.498;2023-03-05T13:33:50;7.18;;;3.55;;
72422;SDS011;60413;55.658;37.498;2023-03-05T13:40:45;6.47;;;3.90;;
72422;SDS011;60413;55.658;37.498;2023-03-05T13:44:18;10.48;;;3.97;;
72422;SDS011;60413;55.658;37.498;2023-03-05T13:50:32;5.97;;;3.05;;
72422;SDS011;60413;55.658;37.498;2023-03-05T13:53:38;5.80;;;3.50;;
72422;SDS011;60413;55.658;37.498;2023-03-05T14:15:28;6.90;;;3.20;;
72422;SDS011;60413;55.658;37.498;2023-03-05T14:18:34;6.00;;;3.10;;
72422;SDS011;60413;55.658;37.498;2023-03-05T14:21:17;4.45;;;2.20;;
72422;SDS011;60413;55.658;37.498;2023-03-05T14:24:27;6.10;;;2.67;;
72422;SDS011;60413;55.658;37.498;2023-03-05T14:26:59;4.53;;;2.35;;
72422;SDS011;60413;55.658;37.498;2023-03-05T14:29:35;6.75;;;3.70;;
72422;SDS011;60413;55.658;37.498;2023-03-05T14:34:39;5.18;;;1.85;;
72422;SDS011;60413;55.658;37.498;2023-03-05T14:39:52;10.50;;;4.20;;
72422;SDS011;60413;55.658;37.498;2023-03-05T14:42:27;8.55;;;3.70;;
72422;SDS011;60413;55.658;37.498;2023-03-05T14:45:22;8.82;;;3.20;;
72422;SDS011;60413;55.658;37.498;2023-03-05T14:47:57;6.22;;;3.45;;
72422;SDS011;60413;55.658;37.498;2023-03-05T14:53:26;9.70;;;3.63;;
72422;SDS011;60413;55.658;37.498;2023-03-05T14:56:08;6.63;;;2.95;;
72422;SDS011;60413;55.658;37.498;2023-03-05T14:59:01;7.07;;;2.67;;
72422;SDS011;60413;55.658;37.498;2023-03-05T15:01:30;4.35;;;2.33;;
72422;SDS011;60413;55.658;37.498;2023-03-05T15:04:03;6.35;;;2.90;;
72422;SDS011;60413;55.658;37.498;2023-03-05T15:06:35;5.00;;;1.85;;
72422;SDS011;60413;55.658;37.498;2023-03-05T15:09:09;5.20;;;2.58;;
72422;SDS011;60413;55.658;37.498;2023-03-05T15:11:47;4.75;;;1.95;;
72422;SDS011;60413;55.658;37.498;2023-03-05T15:14:17;9.98;;;3.25;;
72422;SDS011;60413;55.658;37.498;2023-03-05T15:17:08;7.07;;;3.15;;
72422;SDS011;60413;55.658;37.498;2023-03-05T15:20:44;6.80;;;3.40;;
72422;SDS011;60413;55.658;37.498;2023-03-05T15:23:22;6.72;;;2.78;;
72422;SDS011;60413;55.658;37.498;2023-03-05T15:26:17;7.60;;;3.38;;
72422;SDS011;60413;55.658;37.498;2023-03-05T15:28:58;5.13;;;3.20;;
72422;SDS011;60413;55.658;37.498;2023-03-05T15:33:53;7.40;;;2.88;;
72422;SDS011;60413;55.658;37.498;2023-03-05T15:36:22;6.30;;;2.80;;
72422;SDS011;60413;55.658;37.498;2023-03-05T15:39:26;6.43;;;3.25;;
72422;SDS011;60413;55.658;37.498;2023-03-05T15:41:57;4.93;;;2.83;;
72422;SDS011;60413;55.658;37.498;2023-03-05T15:44:26;5.20;;;2.88;;
72422;SDS011;60413;55.658;37.498;2023-03-05T15:46:59;6.30;;;3.15;;
72422;SDS011;60413;55.658;37.498;2023-03-05T15:49:37;5.70;;;3.20;;
72422;SDS011;60413;55.658;37.498;2023-03-05T15:52:07;5.80;;;2.88;;
72422;SDS011;60413;55.658;37.498;2023-03-05T15:54:36;9.13;;;3.55;;
72422;SDS011;60413;55.658;37.498;2023-03-05T16:00:25;3.08;;;1.95;;
72422;SDS011;60413;55.658;37.498;2023-03-05T16:03:00;9.18;;;3.45;;
72422;SDS011;60413;55.658;37.498;2023-03-05T16:05:32;5.70;;;2.95;;
72422;SDS011;60413;55.658;37.498;2023-03-05T16:08:16;8.75;;;3.90;;
72422;SDS011;60413;55.658;37.498;2023-03-05T16:10:56;11.20;;;3.40;;
72422;SDS011;60413;55.658;37.498;2023-03-05T16:13:43;8.63;;;3.97;;
72422;SDS011;60413;55.658;37.498;2023-03-05T16:16:32;7.43;;;3.35;;
72422;SDS011;60413;55.658;37.498;2023-03-05T16:19:04;6.05;;;3.25;;
72422;SDS011;60413;55.658;37.498;2023-03-05T16:21:48;8.48;;;4.30;;
72422;SDS011;60413;55.658;37.498;2023-03-05T16:24:27;7.22;;;3.30;;
72422;SDS011;60413;55.658;37.498;2023-03-05T16:27:05;9.52;;;3.67;;
72422;SDS011;60413;55.658;37.498;2023-03-05T16:29:32;8.70;;;3.63;;
72422;SDS011;60413;55.658;37.498;2023-03-05T16:31:59;7.32;;;3.92;;
72422;SDS011;60413;55.658;37.498;2023-03-05T16:34:28;7.60;;;3.88;;
72422;SDS011;60413;55.658;37.498;2023-03-05T16:36:55;10.68;;;3.75;;
72422;SDS011;60413;55.658;37.498;2023-03-05T16:39:45;7.30;;;4.00;;
72422;SDS011;60413;55.658;37.498;2023-03-05T16:42:12;9.98;;;4.05;;
72422;SDS011;60413;55.658;37.498;2023-03-05T16:44:42;9.38;;;4.65;;
72422;SDS011;60413;55.658;37.498;2023-03-05T16:48:40;10.95;;;4.32;;
72422;SDS011;60413;55.658;37.498;2023-03-05T16:52:18;10.10;;;4.82;;
72422;SDS011;60413;55.658;37.498;2023-03-05T16:54:46;9.40;;;4.18;;
72422;SDS011;60413;55.658;37.498;2023-03-05T17:02:43;7.70;;;4.45;;
72422;SDS011;60413;55.658;37.498;2023-03-05T17:05:13;8.80;;;4.95;;
72422;SDS011;60413;55.658;37.498;2023-03-05T17:07:43;9.73;;;5.10;;
72422;SDS011;60413;55.658;37.498;2023-03-05T17:10:12;9.35;;;4.60;;
72422;SDS011;60413;55.658;37.498;2023-03-05T17:12:41;8.63;;;4.53;;
72422;SDS011;60413;55.658;37.498;2023-03-05T17:15:11;11.55;;;4.88;;
72422;SDS011;60413;55.658;37.498;2023-03-05T17:17:53;12.90;;;5.47;;
72422;SDS011;60413;55.658;37.498;2023-03-05T17:20:19;10.48;;;4.43;;
72422;SDS011;60413;55.658;37.498;2023-03-05T17:23:35;9.65;;;4.88;;
72422;SDS011;60413;55.658;37.498;2023-03-05T18:41:36;12.77;;;5.32;;
72422;SDS011;60413;55.658;37.498;2023-03-05T18:44:04;9.57;;;5.55;;
72422;SDS011;60413;55.658;37.498;2023-03-05T18:47:12;12.93;;;5.30;;
72422;SDS011;60413;55.658;37.498;2023-03-05T18:49:46;10.20;;;5.45;;
72422;SDS011;60413;55.658;37.498;2023-03-05T18:52:15;13.23;;;5.63;;
72422;SDS011;60413;55.658;37.498;2023-03-05T19:00:02;10.65;;;5.35;;
72422;SDS011;60413;55.658;37.498;2023-03-05T19:06:53;14.77;;;5.55;;
72422;SDS011;60413;55.658;37.498;2023-03-05T19:12:23;12.23;;;5.57;;
72422;SDS011;60413;55.658;37.498;2023-03-05T19:15:20;14.30;;;6.22;;
72422;SDS011;60413;55.658;37.498;2023-03-05T19:17:47;19.95;;;8.75;;
72422;SDS011;60413;55.658;37.498;2023-03-05T19:20:28;16.77;;;7.30;;
72422;SDS011;60413;55.658;37.498;2023-03-05T19:23:05;16.40;;;7.72;;
72422;SDS011;60413;55.658;37.498;2023-03-05T19:25:32;16.15;;;7.40;;
72422;SDS011;60413;55.658;37.498;2023-03-05T19:34:53;16.10;;;7.07;;
72422;SDS011;60413;55.658;37.498;2023-03-05T19:37:57;16.42;;;7.38;;
72422;SDS011;60413;55.658;37.498;2023-03-05T19:44:43;17.90;;;7.63;;
72422;SDS011;60413;55.658;37.498;2023-03-05T19:47:19;16.77;;;7.03;;
72422;SDS011;60413;55.658;37.498;2023-03-05T19:49:54;16.23;;;7.68;;
72422;SDS011;60413;55.658;37.498;2023-03-05T20:08:54;15.98;;;6.72;;
72422;SDS011;60413;55.658;37.498;2023-03-05T20:15:21;12.48;;;5.32;;
72422;SDS011;60413;55.658;37.498;2023-03-05T20:17:51;17.15;;;7.72;;
72422;SDS011;60413;55.658;37.498;2023-03-05T20:21:13;16.48;;;7.53;;
72422;SDS011;60413;55.658;37.498;2023-03-05T20:24:29;18.38;;;8.65;;
72422;SDS011;60413;55.658;37.498;2023-03-05T20:28:16;18.73;;;7.93;;
72422;SDS011;60413;55.658;37.498;2023-03-05T20:35:53;15.60;;;7.57;;
72422;SDS011;60413;55.658;37.498;2023-03-05T20:39:19;17.33;;;7.47;;
72422;SDS011;60413;55.658;37.498;2023-03-05T20:41:54;14.02;;;6.88;;
72422;SDS011;60413;55.658;37.498;2023-03-05T20:45:11;12.82;;;5.43;;
72422;SDS011;60413;55.658;37.498;2023-03-05T20:47:51;14.18;;;6.65;;
72422;SDS011;60413;55.658;37.498;2023-03-05T20:50:57;17.77;;;7.43;;
72422;SDS011;60413;55.658;37.498;2023-03-05T20:53:39;13.05;;;6.55;;
72422;SDS011;60413;55.658;37.498;2023-03-05T20:56:44;18.38;;;8.05;;
72422;SDS011;60413;55.658;37.498;2023-03-05T20:59:30;17.45;;;8.13;;
72422;SDS011;60413;55.658;37.498;2023-03-05T21:02:04;17.45;;;8.10;;
72422;SDS011;60413;55.658;37.498;2023-03-05T21:04:34;17.05;;;7.85;;
72422;SDS011;60413;55.658;37.498;2023-03-05T21:07:00;15.32;;;7.05;;
72422;SDS011;60413;55.658;37.498;2023-03-05T21:12:31;22.55;;;8.00;;
72422;SDS011;60413;55.658;37.498;2023-03-05T21:15:16;14.98;;;6.95;;
72422;SDS011;60413;55.658;37.498;2023-03-05T21:17:47;17.98;;;7.60;;
72422;SDS011;60413;55.658;37.498;2023-03-05T21:20:21;16.15;;;7.95;;
72422;SDS011;60413;55.658;37.498;2023-03-05T21:22:58;15.25;;;7.35;;
72422;SDS011;60413;55.658;37.498;2023-03-05T21:25:44;14.05;;;6.28;;
72422;SDS011;60413;55.658;37.498;2023-03-05T21:28:49;15.60;;;6.47;;